createdAt,value
2023-04-17T00:01:09.657Z,7.13
2023-04-17T00:03:36.532Z,6.13
2023-04-17T00:06:03.643Z,6.15
2023-04-17T00:08:31.150Z,5.38
2023-04-17T00:11:06.938Z,5.28
2023-04-17T00:13:34.237Z,4.97
2023-04-17T00:16:01.083Z,4.78
2023-04-17T00:18:27.764Z,4.63
2023-04-17T00:20:54.649Z,5.32
2023-04-17T00:23:21.363Z,7.30
2023-04-17T00:25:48.021Z,7.38
2023-04-17T00:28:14.683Z,10.23
2023-04-17T00:30:41.329Z,8.18
2023-04-17T00:33:08.123Z,9.95
2023-04-17T00:35:34.813Z,10.77
2023-04-17T00:38:01.570Z,8.85
2023-04-17T00:40:28.251Z,9.07
2023-04-17T00:43:00.597Z,9.45
2023-04-17T00:45:27.421Z,8.15
2023-04-17T00:47:54.357Z,9.38
2023-04-17T00:50:21.164Z,9.38
2023-04-17T00:52:47.914Z,9.25
2023-04-17T00:55:15.503Z,10.80
2023-04-17T00:57:45.422Z,9.25
2023-04-17T01:00:12.830Z,9.38
2023-04-17T01:02:39.897Z,10.05
2023-04-17T01:05:06.939Z,9.40
2023-04-17T01:07:33.600Z,9.15
2023-04-17T01:10:00.342Z,9.40
2023-04-17T01:12:27.127Z,8.85
2023-04-17T01:14:55.170Z,9.73
2023-04-17T01:17:22.184Z,8.05
2023-04-17T01:19:49.727Z,8.05
2023-04-17T01:22:16.724Z,8.48
2023-04-17T01:24:43.720Z,8.93
2023-04-17T01:27:13.750Z,9.98
2023-04-17T01:29:41.351Z,9.90
2023-04-17T01:32:08.179Z,10.50
2023-04-17T01:34:37.324Z,11.35
2023-04-17T01:37:04.537Z,10.68
2023-04-17T01:39:31.471Z,10.27
2023-04-17T01:41:58.296Z,10.27
2023-04-17T01:44:25.016Z,11.23
2023-04-17T01:46:51.951Z,10.38
2023-04-17T01:49:18.655Z,9.93
2023-04-17T01:51:45.352Z,10.25
2023-04-17T01:54:12.028Z,10.35
2023-04-17T01:56:38.772Z,10.77
2023-04-17T01:59:05.718Z,10.63
2023-04-17T02:01:32.736Z,11.00
2023-04-17T02:03:59.703Z,11.07
2023-04-17T02:06:27.521Z,11.13
2023-04-17T02:08:54.267Z,10.35
2023-04-17T02:11:21.168Z,10.65
2023-04-17T02:13:48.006Z,11.52
2023-04-17T02:16:15.068Z,10.38
2023-04-17T02:18:41.786Z,10.35
2023-04-17T02:21:09.781Z,10.27
2023-04-17T02:23:36.439Z,11.25
2023-04-17T02:26:03.115Z,11.30
2023-04-17T02:28:29.825Z,10.98
2023-04-17T02:30:56.670Z,10.90
2023-04-17T02:33:23.374Z,10.77
2023-04-17T02:35:50.178Z,10.38
2023-04-17T02:38:17.069Z,10.50
2023-04-17T02:40:43.806Z,10.25
2023-04-17T02:43:10.655Z,10.35
2023-04-17T02:45:37.293Z,10.15
2023-04-17T02:48:04.254Z,9.85
2023-04-17T02:50:30.962Z,12.05
2023-04-17T02:52:57.599Z,10.63
2023-04-17T02:55:24.988Z,11.68
2023-04-17T02:57:51.636Z,15.02
2023-04-17T03:00:18.360Z,16.25
2023-04-17T03:02:45.294Z,16.13
2023-04-17T03:05:14.942Z,18.00
2023-04-17T03:07:41.588Z,17.63
2023-04-17T03:10:09.531Z,19.60
2023-04-17T03:12:36.308Z,19.60
2023-04-17T03:15:03.103Z,17.63
2023-04-17T03:17:29.805Z,18.58
2023-04-17T03:19:56.608Z,18.95
2023-04-17T03:22:23.302Z,20.38
2023-04-17T03:24:49.915Z,21.17
2023-04-17T03:27:16.668Z,18.45
2023-04-17T03:29:43.333Z,19.23
2023-04-17T03:32:10.054Z,21.17
2023-04-17T03:34:37.115Z,20.98
2023-04-17T03:37:03.846Z,21.33
2023-04-17T03:39:30.492Z,25.23
2023-04-17T03:41:57.125Z,22.00
2023-04-17T03:44:23.809Z,18.88
2023-04-17T03:46:50.645Z,12.32
2023-04-17T03:49:17.433Z,10.80
2023-04-17T03:51:44.308Z,11.40
2023-04-17T03:54:11.185Z,11.35
2023-04-17T03:56:37.860Z,11.52
2023-04-17T03:59:04.923Z,11.73
2023-04-17T04:01:32.858Z,10.85
2023-04-17T04:04:00.307Z,10.45
2023-04-17T04:06:29.996Z,10.63
2023-04-17T04:08:57.317Z,11.38
2023-04-17T04:11:23.965Z,11.50
2023-04-17T04:13:50.857Z,12.02
2023-04-17T04:16:17.564Z,13.40
2023-04-17T04:18:44.298Z,17.05
2023-04-17T04:21:12.316Z,19.08
2023-04-17T04:23:41.281Z,19.98
2023-04-17T04:26:08.065Z,18.77
2023-04-17T04:28:34.901Z,18.85
2023-04-17T04:31:02.880Z,18.30
2023-04-17T04:33:29.985Z,18.17
2023-04-17T04:36:01.039Z,19.50
2023-04-17T04:38:32.867Z,17.85
2023-04-17T04:41:01.725Z,18.00
2023-04-17T04:43:29.255Z,16.98
2023-04-17T04:45:56.270Z,16.65
2023-04-17T04:48:23.037Z,16.90
2023-04-17T04:50:49.809Z,16.05
2023-04-17T04:53:16.636Z,22.15
2023-04-17T04:55:43.328Z,73.35
2023-04-17T04:58:10.003Z,18.13
2023-04-17T05:00:36.743Z,11.55
2023-04-17T05:03:03.753Z,15.95
2023-04-17T05:05:30.656Z,13.90
2023-04-17T05:07:57.341Z,15.48
2023-04-17T05:10:24.021Z,12.05
2023-04-17T05:12:50.874Z,11.85
2023-04-17T05:15:17.517Z,10.43
2023-04-17T05:17:44.901Z,10.93
2023-04-17T05:20:15.336Z,11.20
2023-04-17T05:22:42.132Z,12.80
2023-04-17T05:25:09.053Z,11.20
2023-04-17T05:27:35.977Z,11.10
2023-04-17T05:30:02.672Z,11.70
2023-04-17T05:32:31.317Z,12.30
2023-04-17T05:34:58.070Z,11.75
2023-04-17T05:37:24.754Z,10.85
2023-04-17T05:39:51.557Z,10.57
2023-04-17T05:42:18.236Z,10.07
2023-04-17T05:44:46.008Z,10.38
2023-04-17T05:47:12.950Z,12.20
2023-04-17T05:49:39.672Z,11.95
2023-04-17T05:52:06.405Z,10.13
2023-04-17T05:54:33.028Z,10.30
2023-04-17T05:56:59.760Z,9.90
2023-04-17T05:59:27.367Z,10.80
2023-04-17T06:01:54.335Z,10.52
2023-04-17T06:04:21.283Z,9.07
2023-04-17T06:06:48.286Z,8.30
2023-04-17T06:09:15.143Z,9.68
2023-04-17T06:11:41.937Z,8.70
2023-04-17T06:14:08.609Z,9.02
2023-04-17T06:16:35.369Z,8.38
2023-04-17T06:19:02.083Z,8.25
2023-04-17T06:21:28.888Z,7.88
2023-04-17T06:23:55.545Z,7.90
2023-04-17T06:26:22.181Z,9.32
2023-04-17T06:28:48.828Z,9.63
2023-04-17T06:31:15.606Z,8.02
2023-04-17T06:33:42.381Z,7.57
2023-04-17T06:36:09.194Z,8.68
2023-04-17T06:38:35.889Z,9.10
2023-04-17T06:41:02.612Z,9.68
2023-04-17T06:43:29.302Z,8.48
2023-04-17T06:45:55.979Z,9.38
2023-04-17T06:48:22.675Z,9.35
2023-04-17T06:50:49.760Z,8.52
2023-04-17T06:53:16.472Z,9.18
2023-04-17T06:55:43.538Z,9.43
2023-04-17T06:58:10.290Z,9.63
2023-04-17T07:00:37.280Z,8.52
2023-04-17T07:03:04.728Z,8.70
2023-04-17T07:05:31.625Z,8.20
2023-04-17T07:07:58.282Z,8.43
2023-04-17T07:10:24.897Z,7.40
2023-04-17T07:12:51.770Z,8.10
2023-04-17T07:15:18.644Z,7.63
2023-04-17T07:17:45.618Z,7.95
2023-04-17T07:20:12.587Z,8.85
2023-04-17T07:22:40.015Z,8.38
2023-04-17T07:25:07.532Z,7.47
2023-04-17T07:27:34.304Z,8.52
2023-04-17T07:30:01.019Z,12.60
2023-04-17T07:32:28.620Z,8.85
2023-04-17T07:34:55.590Z,7.75
2023-04-17T07:37:22.255Z,7.35
2023-04-17T07:39:50.388Z,7.82
2023-04-17T07:42:17.089Z,7.38
2023-04-17T07:44:43.855Z,7.43
2023-04-17T07:47:10.669Z,7.47
2023-04-17T07:49:39.685Z,10.85
2023-04-17T07:52:06.422Z,9.13
2023-04-17T07:54:33.173Z,8.23
2023-04-17T07:57:03.580Z,7.57
2023-04-17T07:59:30.784Z,9.02
2023-04-17T08:01:57.769Z,7.90
2023-04-17T08:04:25.700Z,7.57
2023-04-17T08:06:52.675Z,8.73
2023-04-17T08:09:21.323Z,7.88
2023-04-17T08:11:57.084Z,8.30
2023-04-17T08:14:25.457Z,8.55
2023-04-17T08:16:52.415Z,7.45
2023-04-17T08:19:19.291Z,9.25
2023-04-17T08:21:49.403Z,9.45
2023-04-17T08:24:19.226Z,8.70
2023-04-17T08:26:46.591Z,8.43
2023-04-17T08:29:13.976Z,8.30
2023-04-17T08:31:41.429Z,6.40
2023-04-17T08:34:14.383Z,7.75
2023-04-17T08:36:42.803Z,7.82
2023-04-17T08:39:11.347Z,6.47
2023-04-17T08:41:51.090Z,6.30
2023-04-17T08:44:21.487Z,6.47
2023-04-17T08:46:49.010Z,8.07
2023-04-17T08:49:15.808Z,8.35
2023-04-17T08:51:42.789Z,8.45
2023-04-17T08:54:09.789Z,6.70
2023-04-17T08:56:36.575Z,7.47
2023-04-17T08:59:03.394Z,8.55
2023-04-17T09:01:30.323Z,10.88
2023-04-17T09:04:00.302Z,8.13
2023-04-17T09:06:27.661Z,8.68
2023-04-17T09:08:59.114Z,9.18
2023-04-17T09:11:26.486Z,8.07
2023-04-17T09:13:53.831Z,7.63
2023-04-17T09:16:20.828Z,9.70
2023-04-17T09:18:48.183Z,8.95
2023-04-17T09:21:17.219Z,7.70
2023-04-17T09:23:52.214Z,7.15
2023-04-17T09:26:21.477Z,8.13
2023-04-17T09:31:29.962Z,5.68
2023-04-17T09:34:03.597Z,6.50
2023-04-17T09:36:34.235Z,7.78
2023-04-17T09:39:20.411Z,6.07
2023-04-17T09:41:47.307Z,6.40
2023-04-17T09:44:26.189Z,5.40
2023-04-17T09:46:53.648Z,5.88
2023-04-17T09:49:36.641Z,6.30
2023-04-17T09:52:04.291Z,5.38
2023-04-17T09:54:37.867Z,11.45
2023-04-17T09:57:08.586Z,10.00
2023-04-17T09:59:42.050Z,9.88
2023-04-17T10:02:09.761Z,6.45
2023-04-17T10:04:36.925Z,6.88
2023-04-17T10:07:04.534Z,8.85
2023-04-17T10:09:31.251Z,7.18
2023-04-17T10:11:58.621Z,7.25
2023-04-17T10:14:27.034Z,7.60
2023-04-17T10:16:54.833Z,6.45
2023-04-17T10:19:24.587Z,7.60
2023-04-17T10:22:15.976Z,7.43
2023-04-17T10:24:43.179Z,7.90
2023-04-17T10:27:24.937Z,7.40
2023-04-17T10:29:56.922Z,6.90
2023-04-17T10:32:26.207Z,6.75
2023-04-17T10:34:54.234Z,7.80
2023-04-17T10:37:23.069Z,8.45
2023-04-17T10:39:52.274Z,8.05
2023-04-17T10:42:20.632Z,9.00
2023-04-17T10:44:49.235Z,7.40
2023-04-17T10:47:20.221Z,8.52
2023-04-17T10:49:58.822Z,6.75
2023-04-17T10:52:34.939Z,7.53
2023-04-17T10:55:16.175Z,6.70
2023-04-17T10:58:03.281Z,7.68
2023-04-17T11:00:33.205Z,6.50
2023-04-17T11:03:01.264Z,6.45
2023-04-17T11:05:29.104Z,6.47
2023-04-17T11:07:55.893Z,6.95
2023-04-17T11:10:23.130Z,6.45
2023-04-17T11:12:53.300Z,8.07
2023-04-17T11:15:30.416Z,5.78
2023-04-17T11:17:58.449Z,6.60
2023-04-17T11:20:27.173Z,6.25
2023-04-17T11:22:53.882Z,5.90
2023-04-17T11:25:22.634Z,6.38
2023-04-17T11:27:59.795Z,6.30
2023-04-17T11:30:30.634Z,5.88
2023-04-17T11:32:58.950Z,7.00
2023-04-17T11:35:30.647Z,6.03
2023-04-17T11:38:24.987Z,5.70
2023-04-17T11:41:01.329Z,6.68
2023-04-17T11:43:36.215Z,5.93
2023-04-17T11:46:03.553Z,5.88
2023-04-17T11:48:30.458Z,6.07
2023-04-17T11:51:03.139Z,6.10
2023-04-17T11:53:30.214Z,6.65
2023-04-17T11:56:14.450Z,6.78
2023-04-17T11:58:53.428Z,5.85
2023-04-17T12:01:24.912Z,5.18
2023-04-17T12:03:52.875Z,5.35
2023-04-17T12:06:20.611Z,5.32
2023-04-17T12:08:50.190Z,5.82
2023-04-17T12:11:26.617Z,5.40
2023-04-17T12:13:53.807Z,5.68
2023-04-17T12:16:20.577Z,7.95
2023-04-17T12:18:47.504Z,5.63
2023-04-17T12:21:14.619Z,5.40
2023-04-17T12:23:41.785Z,6.07
2023-04-17T12:26:09.105Z,4.97
2023-04-17T12:28:36.363Z,5.03
2023-04-17T12:31:04.729Z,5.05
2023-04-17T12:33:32.363Z,8.45
2023-04-17T12:36:03.104Z,5.78
2023-04-17T12:38:30.577Z,7.75
2023-04-17T12:40:57.480Z,6.40
2023-04-17T12:43:24.169Z,5.45
2023-04-17T12:45:52.713Z,5.68
2023-04-17T12:48:19.400Z,6.63
2023-04-17T12:50:46.073Z,8.10
2023-04-17T12:53:13.930Z,6.20
2023-04-17T12:55:41.765Z,5.47
2023-04-17T12:58:10.163Z,5.88
2023-04-17T13:00:37.592Z,5.43
2023-04-17T13:03:05.418Z,5.43
2023-04-17T13:05:32.457Z,5.53
2023-04-17T13:07:59.533Z,5.15
2023-04-17T13:10:26.232Z,4.93
2023-04-17T13:12:53.009Z,5.25
2023-04-17T13:15:19.795Z,5.20
2023-04-17T13:17:46.646Z,6.50
2023-04-17T13:20:13.446Z,6.25
2023-04-17T13:22:40.231Z,5.75
2023-04-17T13:25:07.327Z,5.50
2023-04-17T13:27:34.056Z,5.65
2023-04-17T13:30:00.783Z,5.93
2023-04-17T13:32:27.502Z,5.82
2023-04-17T13:34:54.624Z,5.75
2023-04-17T13:37:22.094Z,5.45
2023-04-17T13:39:48.816Z,6.03
2023-04-17T13:42:16.956Z,5.57
2023-04-17T13:44:43.659Z,7.72
2023-04-17T13:47:10.332Z,6.18
2023-04-17T13:49:37.028Z,6.38
2023-04-17T13:52:03.875Z,6.43
2023-04-17T13:54:30.668Z,6.60
2023-04-17T13:56:58.270Z,6.22
2023-04-17T13:59:25.526Z,5.75
2023-04-17T14:01:52.325Z,7.43
2023-04-17T14:04:19.336Z,7.03
2023-04-17T14:06:49.626Z,6.03
2023-04-17T14:09:17.355Z,6.13
2023-04-17T14:11:44.061Z,5.35
2023-04-17T14:14:12.848Z,5.80
2023-04-17T14:16:43.359Z,5.80
2023-04-17T14:19:14.104Z,5.57
2023-04-17T14:21:41.299Z,6.05
2023-04-17T14:24:08.163Z,6.75
2023-04-17T14:26:34.928Z,6.18
2023-04-17T14:29:01.615Z,7.15
2023-04-17T14:31:28.372Z,9.73
2023-04-17T14:33:55.240Z,5.75
2023-04-17T14:36:21.861Z,6.18
2023-04-17T14:38:50.034Z,7.63
2023-04-17T14:41:17.186Z,6.15
2023-04-17T14:43:43.896Z,6.20
2023-04-17T14:46:10.905Z,7.35
2023-04-17T14:48:47.970Z,6.28
2023-04-17T14:53:48.756Z,6.57
2023-04-17T14:56:16.035Z,6.13
2023-04-17T14:58:43.422Z,6.07
2023-04-17T15:01:10.361Z,6.82
2023-04-17T15:03:37.342Z,6.63
2023-04-17T15:06:04.414Z,7.00
2023-04-17T15:08:31.324Z,6.93
2023-04-17T15:10:58.844Z,7.15
2023-04-17T15:13:25.549Z,6.72
2023-04-17T15:15:52.204Z,9.82
2023-04-17T15:18:19.023Z,7.88
2023-04-17T15:20:46.427Z,6.68
2023-04-17T15:23:13.338Z,5.95
2023-04-17T15:25:40.212Z,6.72
2023-04-17T15:28:07.554Z,6.38
2023-04-17T15:30:34.302Z,6.38
2023-04-17T15:33:01.096Z,5.57
2023-04-17T15:35:27.853Z,6.28
2023-04-17T15:37:54.496Z,17.75
2023-04-17T15:40:21.526Z,8.80
2023-04-17T15:42:48.190Z,8.23
2023-04-17T15:45:14.866Z,8.98
2023-04-17T15:47:41.555Z,8.60
2023-04-17T15:50:08.759Z,7.65
2023-04-17T15:52:35.579Z,7.93
2023-04-17T15:55:02.255Z,7.30
2023-04-17T15:57:28.919Z,8.88
2023-04-17T15:59:55.632Z,8.13
2023-04-17T16:02:22.409Z,9.70
2023-04-17T16:04:49.203Z,8.88
2023-04-17T16:07:16.661Z,8.77
2023-04-17T16:09:44.714Z,8.07
2023-04-17T16:12:11.426Z,9.25
2023-04-17T16:14:38.437Z,9.35
2023-04-17T16:17:10.881Z,9.98
2023-04-17T16:19:37.581Z,9.88
2023-04-17T16:22:04.317Z,10.75
2023-04-17T16:24:31.198Z,12.82
2023-04-17T16:27:01.143Z,11.95
2023-04-17T16:29:27.952Z,12.63
2023-04-17T16:31:55.542Z,7.53
2023-04-17T16:34:22.479Z,8.27
2023-04-17T16:36:49.743Z,9.07
2023-04-17T16:39:16.389Z,10.50
2023-04-17T16:41:43.747Z,8.88
2023-04-17T16:44:10.773Z,8.30
2023-04-17T16:46:52.159Z,8.35
2023-04-17T16:49:24.225Z,7.45
2023-04-17T16:51:50.880Z,7.95
2023-04-17T16:54:19.418Z,7.75
2023-04-17T16:56:47.326Z,7.18
2023-04-17T16:59:14.374Z,9.40
2023-04-17T17:01:41.146Z,7.07
2023-04-17T17:04:07.892Z,10.90
2023-04-17T17:06:34.588Z,11.82
2023-04-17T17:09:01.361Z,7.32
2023-04-17T17:11:28.003Z,8.10
2023-04-17T17:13:54.654Z,7.57
2023-04-17T17:16:21.443Z,7.60
2023-04-17T17:18:48.377Z,9.52
2023-04-17T17:21:15.359Z,7.50
2023-04-17T17:23:42.165Z,6.90
2023-04-17T17:26:08.846Z,11.75
2023-04-17T17:28:35.709Z,10.55
2023-04-17T17:31:03.925Z,9.07
2023-04-17T17:33:32.224Z,7.00
2023-04-17T17:35:59.413Z,7.63
2023-04-17T17:38:30.884Z,7.65
2023-04-17T17:40:57.585Z,8.25
2023-04-17T17:43:24.355Z,6.97
2023-04-17T17:45:51.200Z,6.32
2023-04-17T17:48:20.418Z,6.30
2023-04-17T17:53:13.909Z,10.82
2023-04-17T17:55:40.714Z,6.53
2023-04-17T17:58:08.651Z,6.75
2023-04-17T18:00:35.619Z,7.28
2023-04-17T18:03:02.489Z,5.82
2023-04-17T18:05:29.509Z,7.80
2023-04-17T18:07:56.343Z,11.13
2023-04-17T18:10:23.045Z,8.02
2023-04-17T18:12:49.877Z,8.50
2023-04-17T18:15:16.821Z,7.45
2023-04-17T18:17:43.491Z,6.25
2023-04-17T18:20:10.620Z,8.07
2023-04-17T18:22:38.478Z,7.43
2023-04-17T18:25:08.600Z,7.13
2023-04-17T18:27:38.094Z,7.55
2023-04-17T18:30:06.258Z,6.82
2023-04-17T18:32:33.100Z,7.05
2023-04-17T18:35:00.006Z,6.68
2023-04-17T18:37:26.663Z,7.38
2023-04-17T18:39:53.467Z,7.65
2023-04-17T18:42:20.631Z,8.95
2023-04-17T18:44:47.824Z,7.28
2023-04-17T18:47:14.521Z,8.05
2023-04-17T18:49:41.216Z,6.85
2023-04-17T18:52:07.903Z,6.80
2023-04-17T18:54:35.340Z,7.38
2023-04-17T18:57:02.088Z,7.60
2023-04-17T18:59:28.815Z,7.75
2023-04-17T19:01:55.476Z,7.18
2023-04-17T19:04:22.175Z,6.50
2023-04-17T19:06:48.846Z,8.02
2023-04-17T19:09:15.580Z,9.27
2023-04-17T19:11:42.581Z,9.80
2023-04-17T19:14:09.198Z,7.47
2023-04-17T19:16:35.951Z,6.88
2023-04-17T19:19:02.621Z,8.55
2023-04-17T19:21:31.275Z,6.95
2023-04-17T19:23:58.128Z,6.50
2023-04-17T19:26:24.788Z,9.93
2023-04-17T19:28:51.521Z,7.93
2023-04-17T19:31:18.222Z,6.70
2023-04-17T19:33:44.897Z,7.63
2023-04-17T19:36:11.572Z,8.65
2023-04-17T19:38:38.230Z,9.77
2023-04-17T19:41:15.058Z,10.55
2023-04-17T19:43:42.584Z,8.50
2023-04-17T19:46:09.684Z,7.30
2023-04-17T19:48:37.205Z,8.02
2023-04-17T19:51:06.921Z,8.20
2023-04-17T19:53:37.983Z,7.45
2023-04-17T19:56:08.182Z,7.13
2023-04-17T19:58:35.617Z,8.43
2023-04-17T20:01:02.364Z,8.57
2023-04-17T20:03:30.558Z,10.05
2023-04-17T20:05:57.880Z,6.82
2023-04-17T20:08:25.619Z,7.22
2023-04-17T20:10:52.762Z,8.82
2023-04-17T20:13:19.376Z,6.90
2023-04-17T20:15:46.143Z,6.60
2023-04-17T20:18:12.972Z,6.95
2023-04-17T20:20:39.685Z,6.32
2023-04-17T20:23:06.566Z,6.65
2023-04-17T20:25:33.466Z,10.35
2023-04-17T20:28:02.594Z,7.97
2023-04-17T20:30:29.517Z,7.35
2023-04-17T20:32:56.687Z,9.98
2023-04-17T20:35:26.200Z,7.75
2023-04-17T20:37:53.053Z,6.93
2023-04-17T20:40:19.973Z,6.93
2023-04-17T20:42:47.505Z,7.05
2023-04-17T20:45:14.431Z,7.85
2023-04-17T20:47:56.040Z,6.85
2023-04-17T20:50:24.305Z,6.57
2023-04-17T20:52:51.118Z,7.63
2023-04-17T20:55:19.884Z,7.65
2023-04-17T20:57:47.129Z,9.35
2023-04-17T21:00:14.109Z,7.65
2023-04-17T21:02:40.997Z,7.15
2023-04-17T21:05:08.461Z,6.85
2023-04-17T21:07:35.810Z,7.97
2023-04-17T21:10:02.917Z,7.13
2023-04-17T21:12:29.690Z,7.07
2023-04-17T21:14:56.312Z,8.10
2023-04-17T21:17:23.045Z,7.78
2023-04-17T21:19:49.984Z,7.15
2023-04-17T21:22:16.682Z,6.20
2023-04-17T21:24:43.405Z,8.25
2023-04-17T21:27:10.536Z,6.57
2023-04-17T21:29:37.617Z,6.95
2023-04-17T21:32:04.516Z,7.50
2023-04-17T21:34:31.381Z,7.40
2023-04-17T21:36:59.732Z,8.70
2023-04-17T21:39:26.602Z,7.70
2023-04-17T21:41:53.371Z,8.18
2023-04-17T21:44:20.068Z,7.00
2023-04-17T21:46:46.724Z,7.93
2023-04-17T21:49:13.603Z,7.60
2023-04-17T21:51:40.957Z,8.07
2023-04-17T21:54:08.521Z,8.13
2023-04-17T21:56:35.360Z,7.90
2023-04-17T21:59:02.098Z,7.43
2023-04-17T22:01:28.770Z,7.55
2023-04-17T22:03:55.585Z,7.80
2023-04-17T22:06:22.290Z,8.38
2023-04-17T22:08:49.053Z,7.88
2023-04-17T22:11:15.755Z,7.25
2023-04-17T22:13:42.896Z,7.72
2023-04-17T22:16:09.641Z,7.63
2023-04-17T22:18:36.368Z,6.97
2023-04-17T22:21:03.652Z,7.95
2023-04-17T22:23:30.583Z,8.20
2023-04-17T22:25:57.289Z,7.57
2023-04-17T22:28:24.174Z,7.68
2023-04-17T22:30:52.076Z,6.95
2023-04-17T22:33:18.786Z,8.52
2023-04-17T22:35:45.500Z,7.43
2023-04-17T22:38:12.301Z,7.18
2023-04-17T22:40:39.008Z,7.80
2023-04-17T22:43:05.854Z,7.75
2023-04-17T22:45:32.809Z,6.72
2023-04-17T22:47:59.840Z,8.10
2023-04-17T22:50:26.603Z,8.32
2023-04-17T22:52:53.346Z,8.35
2023-04-17T22:55:20.078Z,7.65
2023-04-17T22:57:46.736Z,7.05
2023-04-17T23:00:14.072Z,7.82
2023-04-17T23:02:40.977Z,7.32
2023-04-17T23:05:08.891Z,7.93
2023-04-17T23:07:35.644Z,8.45
2023-04-17T23:10:02.300Z,7.90
2023-04-17T23:12:29.060Z,8.38
2023-04-17T23:14:55.750Z,7.20
2023-04-17T23:17:22.483Z,7.60
2023-04-17T23:19:49.233Z,8.77
2023-04-17T23:22:15.949Z,7.03
2023-04-17T23:24:42.678Z,7.88
2023-04-17T23:27:09.312Z,8.63
2023-04-17T23:29:36.073Z,7.40
2023-04-17T23:32:04.509Z,7.70
2023-04-17T23:34:31.259Z,7.47
2023-04-17T23:36:57.860Z,7.40
2023-04-17T23:39:25.080Z,7.00
2023-04-17T23:41:51.735Z,7.25
2023-04-17T23:44:18.383Z,7.35
2023-04-17T23:46:45.092Z,6.90
2023-04-17T23:49:11.778Z,7.63
2023-04-17T23:51:38.458Z,7.25
2023-04-17T23:54:05.369Z,7.22
2023-04-17T23:56:32.117Z,7.65
2023-04-17T23:58:58.806Z,7.45
